Time;durP1;ratioP1;P1;durP2;ratioP2;P2;SDS_P1;SDS_P2;PMS_P1;PMS_P2;Temp;Humidity;BMP_temperature;BMP_pressure;BME280_temperature;BME280_humidity;BME280_pressure;Samples;Min_cycle;Max_cycle;Signal;HPM_P1;HPM_P2
2022/10/25 00:00:52;;;;;;;12.63;2.17;;;13.40;77.80;;;;;;4217117;28;20692;-88
2022/10/25 00:03:12;;;;;;;11.77;2.13;;;13.40;78.00;;;;;;4218758;27;20038;-87
2022/10/25 00:05:32;;;;;;;16.08;2.97;;;13.30;78.10;;;;;;4207958;28;20751;-87
2022/10/25 00:07:53;;;;;;;20.85;3.25;;;13.40;78.30;;;;;;4187801;28;20099;-87
2022/10/25 00:10:12;;;;;;;25.77;2.60;;;13.40;78.40;;;;;;4204557;28;20059;-88
2022/10/25 00:12:31;;;;;;;20.52;2.95;;;13.30;78.30;;;;;;4207465;28;20077;-88
2022/10/25 00:14:50;;;;;;;14.98;2.80;;;13.40;78.40;;;;;;4217013;28;20521;-88
2022/10/25 00:17:09;;;;;;;19.17;3.05;;;13.40;78.40;;;;;;4229945;28;20085;-87
2022/10/25 00:19:28;;;;;;;21.27;2.70;;;13.50;78.50;;;;;;4217938;28;20031;-87
2022/10/25 00:21:48;;;;;;;12.73;2.95;;;13.40;78.50;;;;;;4207422;28;20054;-88
2022/10/25 00:24:09;;;;;;;21.48;3.28;;;13.40;78.50;;;;;;4195502;28;20054;-87
2022/10/25 00:26:28;;;;;;;18.00;2.85;;;13.40;78.50;;;;;;4210731;28;20062;-89
2022/10/25 00:28:47;;;;;;;11.02;2.42;;;13.50;78.60;;;;;;4185823;28;20035;-89
2022/10/25 00:31:16;;;;;;;15.05;2.90;;;13.40;78.50;;;;;;4201167;28;20137;-88
2022/10/25 00:33:37;;;;;;;22.42;3.60;;;13.40;78.60;;;;;;4204329;28;20040;-88
2022/10/25 00:36:02;;;;;;;20.10;3.50;;;13.40;78.50;;;;;;4189512;28;20031;-89
2022/10/25 00:38:22;;;;;;;14.90;3.08;;;13.40;78.60;;;;;;4203129;28;20066;-90
2022/10/25 00:40:41;;;;;;;21.40;3.03;;;13.40;78.50;;;;;;4192099;28;20040;-88
2022/10/25 00:43:00;;;;;;;19.30;2.67;;;13.40;78.60;;;;;;4204602;28;20075;-89
2022/10/25 00:45:19;;;;;;;15.75;3.17;;;13.40;78.60;;;;;;4196935;28;20036;-88
2022/10/25 00:47:55;;;;;;;19.02;3.42;;;13.40;78.60;;;;;;4187522;28;20516;-89
2022/10/25 00:50:27;;;;;;;19.25;3.10;;;13.40;78.70;;;;;;4189948;28;20035;-88
2022/10/25 00:52:50;;;;;;;14.85;2.53;;;13.40;78.60;;;;;;4205587;28;20051;-88
2022/10/25 01:21:34;;;;;;;22.10;4.13;;;13.40;78.90;;;;;;4193781;28;20055;-88
2022/10/25 01:24:05;;;;;;;16.05;3.80;;;13.40;78.80;;;;;;4204173;28;20036;-88
2022/10/25 01:26:45;;;;;;;17.55;3.65;;;13.40;78.80;;;;;;4196741;28;20032;-89
2022/10/25 01:29:43;;;;;;;15.95;3.67;;;13.30;78.70;;;;;;4206034;28;20035;-88
2022/10/25 01:32:16;;;;;;;19.65;3.47;;;13.30;78.90;;;;;;4124607;28;20133;-88
2022/10/25 01:34:54;;;;;;;20.88;3.97;;;13.30;78.80;;;;;;4114594;28;20082;-88
2022/10/25 01:37:22;;;;;;;20.73;4.13;;;13.30;78.90;;;;;;4125299;28;20081;-86
2022/10/25 01:40:00;;;;;;;18.23;4.40;;;13.20;78.70;;;;;;4121024;28;20044;-89
2022/10/25 01:43:05;;;;;;;21.63;4.18;;;13.30;78.90;;;;;;4125678;28;20042;-89
2022/10/25 01:45:42;;;;;;;20.55;3.88;;;13.30;79.10;;;;;;4128946;28;20076;-88
2022/10/25 01:48:04;;;;;;;20.63;4.30;;;13.30;79.20;;;;;;4128949;28;20061;-86
2022/10/25 01:50:29;;;;;;;18.13;3.53;;;13.30;79.10;;;;;;4125133;28;20086;-88
2022/10/25 01:52:49;;;;;;;17.27;3.55;;;13.30;79.30;;;;;;4125854;28;20778;-87
2022/10/25 01:55:12;;;;;;;22.10;3.75;;;13.30;79.20;;;;;;4121177;28;20066;-87
2022/10/25 01:57:52;;;;;;;20.88;4.05;;;13.30;79.30;;;;;;4112462;28;20038;-87
2022/10/25 02:00:17;;;;;;;26.48;4.35;;;13.30;79.60;;;;;;4127859;28;20044;-87
2022/10/25 02:03:06;;;;;;;19.27;3.92;;;13.30;79.40;;;;;;4158407;28;20047;-88
2022/10/25 02:05:37;;;;;;;23.85;4.65;;;13.40;79.60;;;;;;4200691;28;20043;-87
2022/10/25 02:08:10;;;;;;;25.20;4.13;;;13.40;79.50;;;;;;4189521;28;20828;-88
2022/10/25 02:10:55;;;;;;;22.65;4.20;;;13.30;79.40;;;;;;4202842;28;20063;-87
2022/10/25 02:13:27;;;;;;;20.60;3.58;;;13.40;79.50;;;;;;4159277;28;20143;-87
2022/10/25 02:16:03;;;;;;;20.65;3.78;;;13.30;79.40;;;;;;4198519;28;20387;-87
2022/10/25 02:18:26;;;;;;;24.25;3.67;;;13.40;79.70;;;;;;4186437;28;20051;-88
2022/10/25 02:20:48;;;;;;;30.85;4.70;;;13.40;79.80;;;;;;4201294;28;20082;-85
2022/10/25 02:23:08;;;;;;;24.45;3.58;;;13.40;79.70;;;;;;4198867;28;20120;-87
2022/10/25 02:25:31;;;;;;;15.25;3.22;;;13.40;79.70;;;;;;4185987;28;20607;-86
2022/10/25 02:27:52;;;;;;;21.98;3.47;;;13.50;79.80;;;;;;4204625;28;20436;-87
2022/10/25 02:30:12;;;;;;;33.45;3.67;;;13.40;79.80;;;;;;4202197;28;20036;-87
2022/10/25 02:32:32;;;;;;;23.48;4.15;;;13.40;79.90;;;;;;4191319;28;20139;-86
2022/10/25 02:34:51;;;;;;;15.15;3.78;;;13.50;79.90;;;;;;4187184;28;20108;-87
2022/10/25 02:37:10;;;;;;;17.30;3.83;;;13.30;79.90;;;;;;4188995;28;20059;-86
2022/10/25 02:39:30;;;;;;;21.13;3.47;;;13.30;80.10;;;;;;4204958;28;20497;-87
2022/10/25 02:41:49;;;;;;;15.10;2.95;;;13.30;80.00;;;;;;4207934;28;20051;-87
2022/10/25 02:44:08;;;;;;;25.17;3.20;;;13.30;80.10;;;;;;4194203;28;20079;-87
2022/10/25 02:46:27;;;;;;;17.05;3.17;;;13.30;80.10;;;;;;4207702;28;20031;-86
2022/10/25 02:48:48;;;;;;;24.05;3.35;;;13.40;80.30;;;;;;4207404;28;20035;-87
2022/10/25 02:51:08;;;;;;;18.85;2.97;;;13.30;80.30;;;;;;4191249;28;21575;-87
2022/10/25 02:53:27;;;;;;;22.48;3.28;;;13.30;80.30;;;;;;4190608;28;20030;-87
2022/10/25 02:55:44;;;;;;;17.55;2.80;;;13.30;80.40;;;;;;4207116;28;20241;-86
2022/10/25 02:58:03;;;;;;;20.02;3.35;;;13.30;80.50;;;;;;4190512;28;20535;-87
2022/10/25 03:00:22;;;;;;;16.67;3.08;;;13.30;80.40;;;;;;4208236;28;20093;-87
2022/10/25 03:02:41;;;;;;;17.48;3.20;;;13.30;80.50;;;;;;4193379;28;20062;-88
2022/10/25 03:05:00;;;;;;;21.73;3.35;;;13.50;80.70;;;;;;4189909;28;20543;-87
2022/10/25 03:07:20;;;;;;;19.23;3.90;;;13.50;80.80;;;;;;4183295;28;20036;-87
2022/10/25 03:09:39;;;;;;;23.17;3.70;;;13.30;80.60;;;;;;4202789;28;20515;-87
2022/10/25 03:11:58;;;;;;;20.70;3.15;;;13.30;80.80;;;;;;4195339;28;20089;-88
2022/10/25 03:14:17;;;;;;;19.65;3.05;;;13.30;80.70;;;;;;4214602;28;20070;-87
2022/10/25 03:16:36;;;;;;;24.13;3.22;;;13.30;80.70;;;;;;4207999;28;20076;-86
2022/10/25 03:18:57;;;;;;;24.35;4.00;;;13.40;80.90;;;;;;4205903;28;20605;-87
2022/10/25 03:21:16;;;;;;;18.10;2.92;;;13.40;80.90;;;;;;4190177;28;20234;-87
2022/10/25 03:23:35;;;;;;;24.40;3.42;;;13.30;80.80;;;;;;4203149;28;20053;-88
2022/10/25 03:25:56;;;;;;;17.92;2.75;;;13.30;80.70;;;;;;4196871;28;20477;-87
2022/10/25 03:28:15;;;;;;;17.50;2.60;;;13.30;80.70;;;;;;4191571;28;20048;-87
2022/10/25 03:30:35;;;;;;;23.95;3.33;;;13.40;80.80;;;;;;4191878;28;20040;-87
2022/10/25 03:32:55;;;;;;;13.85;2.22;;;13.20;80.70;;;;;;4185508;28;20551;-87
2022/10/25 03:35:15;;;;;;;21.80;3.38;;;13.20;80.70;;;;;;4185849;28;20097;-87
2022/10/25 03:37:34;;;;;;;14.23;2.88;;;13.20;80.70;;;;;;4202592;28;20116;-86
2022/10/25 03:39:54;;;;;;;9.70;2.20;;;13.20;80.70;;;;;;4210642;28;20050;-88
2022/10/25 03:42:13;;;;;;;16.52;3.05;;;13.20;80.70;;;;;;4201913;28;21232;-86
2022/10/25 03:44:32;;;;;;;11.43;1.88;;;13.20;80.80;;;;;;4209601;28;20043;-87
2022/10/25 03:46:51;;;;;;;13.40;2.45;;;13.20;80.90;;;;;;4201927;28;20047;-86
2022/10/25 03:49:10;;;;;;;15.45;2.28;;;13.20;80.90;;;;;;4195365;28;20039;-87
2022/10/25 03:51:29;;;;;;;15.73;2.38;;;13.20;80.80;;;;;;4194559;28;20134;-88
2022/10/25 03:53:49;;;;;;;9.57;2.00;;;13.20;80.90;;;;;;4189727;28;20050;-87
2022/10/25 03:56:08;;;;;;;16.35;2.13;;;13.20;80.70;;;;;;4194572;28;20090;-86
2022/10/25 03:58:27;;;;;;;17.40;2.33;;;13.10;80.60;;;;;;4192178;28;20434;-87
2022/10/25 04:00:46;;;;;;;6.95;1.77;;;13.10;80.60;;;;;;4199563;28;20058;-86
2022/10/25 04:03:06;;;;;;;9.23;1.38;;;13.10;80.50;;;;;;4186344;28;20070;-87
2022/10/25 04:05:26;;;;;;;8.50;1.80;;;13.10;80.40;;;;;;4204786;28;20050;-86
2022/10/25 04:07:45;;;;;;;9.63;1.52;;;13.00;80.30;;;;;;4202383;28;20046;-86
2022/10/25 04:10:05;;;;;;;8.05;1.50;;;13.00;80.30;;;;;;4186761;28;21991;-87
2022/10/25 04:12:24;;;;;;;5.97;1.52;;;13.00;80.30;;;;;;4196361;28;20062;-87
2022/10/25 04:14:43;;;;;;;9.30;1.40;;;13.00;80.30;;;;;;4197511;28;20962;-88
2022/10/25 04:17:02;;;;;;;11.45;1.48;;;13.00;80.40;;;;;;4182163;28;20044;-87
2022/10/25 04:19:21;;;;;;;9.88;1.45;;;13.00;80.30;;;;;;4181412;28;20123;-86
2022/10/25 04:21:40;;;;;;;9.27;1.65;;;12.90;80.30;;;;;;4200082;28;20098;-87
2022/10/25 04:23:59;;;;;;;12.40;1.50;;;12.90;80.50;;;;;;4189843;28;20043;-87
2022/10/25 04:26:19;;;;;;;13.60;1.75;;;13.00;80.70;;;;;;4204751;28;20068;-86
2022/10/25 04:28:38;;;;;;;13.63;2.10;;;12.90;80.60;;;;;;4201689;28;20326;-87
2022/10/25 04:31:00;;;;;;;14.70;2.53;;;12.90;80.70;;;;;;4203792;28;20151;-88
2022/10/25 04:33:19;;;;;;;12.93;2.58;;;12.90;80.80;;;;;;4202093;28;20027;-87
2022/10/25 04:35:39;;;;;;;15.65;2.72;;;13.00;80.90;;;;;;4205350;28;20527;-87
2022/10/25 04:37:58;;;;;;;9.88;2.08;;;12.80;80.80;;;;;;4203141;28;20099;-87
2022/10/25 04:40:17;;;;;;;19.20;2.92;;;12.90;81.00;;;;;;4202584;28;20078;-88
2022/10/25 04:42:37;;;;;;;11.40;2.22;;;12.80;81.00;;;;;;4206513;28;20522;-87
2022/10/25 04:44:56;;;;;;;11.50;2.35;;;12.80;81.00;;;;;;4188100;28;20044;-87
2022/10/25 04:47:15;;;;;;;15.10;2.47;;;12.80;81.10;;;;;;4191797;28;20133;-87
2022/10/25 04:49:34;;;;;;;14.82;2.20;;;12.90;81.30;;;;;;4197272;28;20043;-87
2022/10/25 04:51:53;;;;;;;11.00;2.00;;;12.80;81.20;;;;;;4201780;28;20506;-87
2022/10/25 04:54:12;;;;;;;12.50;1.92;;;12.80;81.40;;;;;;4197536;28;20519;-87
2022/10/25 04:56:31;;;;;;;18.85;2.65;;;12.80;81.40;;;;;;4213900;28;20045;-86
2022/10/25 04:58:50;;;;;;;16.98;2.45;;;12.80;81.30;;;;;;4195539;28;20117;-87
2022/10/25 05:01:12;;;;;;;21.95;2.45;;;12.70;81.30;;;;;;4212602;28;20047;-88
2022/10/25 05:03:32;;;;;;;9.98;1.60;;;12.90;81.40;;;;;;4196725;28;20035;-87
2022/10/25 05:05:51;;;;;;;11.45;1.65;;;12.80;81.20;;;;;;4202285;28;20042;-86
2022/10/25 05:08:11;;;;;;;11.68;1.58;;;12.70;81.00;;;;;;4204549;28;20078;-87
2022/10/25 05:10:30;;;;;;;8.15;1.35;;;12.70;80.90;;;;;;4190375;28;20028;-88
2022/10/25 05:12:52;;;;;;;8.80;1.77;;;12.70;81.60;;;;;;4202487;28;20086;-87
2022/10/25 05:15:11;;;;;;;8.70;1.50;;;12.80;81.00;;;;;;4200349;28;20092;-84
2022/10/25 05:17:30;;;;;;;13.63;1.67;;;12.60;80.80;;;;;;4190435;28;20100;-86
2022/10/25 05:19:50;;;;;;;15.77;1.77;;;12.60;80.80;;;;;;4205226;28;20116;-86
2022/10/25 05:22:08;;;;;;;12.63;1.20;;;12.70;80.90;;;;;;4193740;28;20042;-86
2022/10/25 05:24:27;;;;;;;7.30;1.20;;;12.60;81.50;;;;;;4207232;28;20331;-86
2022/10/25 05:26:46;;;;;;;6.13;1.23;;;12.60;80.70;;;;;;4192420;28;20118;-86
2022/10/25 05:29:05;;;;;;;8.07;1.50;;;12.60;80.70;;;;;;4205438;28;20069;-85
2022/10/25 05:31:27;;;;;;;6.47;1.48;;;12.70;80.70;;;;;;4194073;28;20035;-86
2022/10/25 05:33:58;;;;;;;12.63;1.70;;;12.60;80.60;;;;;;4216439;28;20067;-87
2022/10/25 05:36:18;;;;;;;10.23;1.60;;;12.50;80.60;;;;;;4217702;28;20443;-86
2022/10/25 05:38:37;;;;;;;8.50;1.42;;;12.50;80.60;;;;;;4203285;28;20112;-85
2022/10/25 05:40:59;;;;;;;13.93;2.15;;;12.50;80.60;;;;;;4190078;28;20039;-86
2022/10/25 05:43:18;;;;;;;14.82;2.13;;;12.50;80.70;;;;;;4217494;28;20071;-86
2022/10/25 05:45:37;;;;;;;11.50;1.95;;;12.50;80.70;;;;;;4202204;28;20045;-87
2022/10/25 05:47:56;;;;;;;12.13;2.20;;;12.50;80.80;;;;;;4193233;28;20062;-87
2022/10/25 05:50:15;;;;;;;12.45;2.25;;;12.50;80.90;;;;;;4198387;28;21018;-88
2022/10/25 05:52:34;;;;;;;12.52;1.90;;;12.50;81.00;;;;;;4205767;28;20051;-86
2022/10/25 05:54:35;;;;;;;17.55;2.22;;;12.50;81.10;;;;;;4182455;28;20489;-87
2022/10/25 05:56:36;;;;;;;13.30;1.70;;;12.50;81.10;;;;;;4195300;28;20032;-86
2022/10/25 05:58:37;;;;;;;11.60;1.50;;;12.60;81.90;;;;;;4190402;28;20024;-87
2022/10/25 06:00:38;;;;;;;14.93;2.25;;;12.50;81.10;;;;;;4168380;28;20025;-86
2022/10/25 06:02:39;;;;;;;15.85;2.03;;;12.60;81.20;;;;;;4196311;28;20028;-87
2022/10/25 06:04:39;;;;;;;9.48;1.58;;;12.40;81.20;;;;;;4211827;28;20028;-87
2022/10/25 06:06:41;;;;;;;14.02;1.98;;;12.40;81.20;;;;;;4188744;28;20044;-87
2022/10/25 06:08:42;;;;;;;12.85;2.05;;;12.50;81.50;;;;;;4190689;28;20366;-86
2022/10/25 06:10:43;;;;;;;17.50;2.40;;;12.50;81.50;;;;;;4191137;28;20038;-86
2022/10/25 06:12:44;;;;;;;14.82;2.08;;;12.60;81.70;;;;;;4202407;28;20051;-87
2022/10/25 06:14:44;;;;;;;18.02;2.28;;;12.50;81.60;;;;;;4197248;28;20108;-88
2022/10/25 06:16:45;;;;;;;8.90;1.67;;;12.50;81.70;;;;;;4195482;28;20040;-87
2022/10/25 06:18:46;;;;;;;11.10;1.67;;;12.50;81.70;;;;;;4212644;28;20040;-86
2022/10/25 06:20:46;;;;;;;6.57;1.30;;;12.50;81.80;;;;;;4210719;28;20052;-87
2022/10/25 06:22:47;;;;;;;9.77;1.40;;;12.50;81.50;;;;;;4173352;28;20031;-87
2022/10/25 06:24:48;;;;;;;11.63;1.45;;;12.50;81.40;;;;;;4212092;28;20024;-87
2022/10/25 06:26:48;;;;;;;5.68;1.10;;;12.60;81.20;;;;;;4194710;28;20028;-87
2022/10/25 06:28:54;;;;;;;6.05;1.02;;;12.50;81.00;;;;;;4193415;28;20123;-87
2022/10/25 06:31:03;;;;;;;4.82;1.08;;;12.50;80.80;;;;;;4209567;28;20031;-86
2022/10/25 06:33:04;;;;;;;8.13;1.02;;;12.50;80.70;;;;;;4195212;28;20055;-87
2022/10/25 06:35:05;;;;;;;6.95;1.15;;;12.40;80.60;;;;;;4208196;28;20028;-87
2022/10/25 06:37:06;;;;;;;5.68;0.98;;;12.40;80.50;;;;;;4218220;28;20055;-87
2022/10/25 06:39:07;;;;;;;5.32;0.95;;;12.40;80.50;;;;;;4194907;28;20032;-86
2022/10/25 06:41:19;;;;;;;4.40;1.25;;;12.50;81.30;;;;;;4187100;28;20507;-88
2022/10/25 06:43:24;;;;;;;5.75;0.70;;;12.40;80.40;;;;;;4190658;28;20028;-87
2022/10/25 06:45:25;;;;;;;3.25;0.80;;;12.50;80.50;;;;;;4208661;28;20115;-87
2022/10/25 06:47:26;;;;;;;7.90;1.00;;;12.40;80.50;;;;;;4185843;28;20042;-87
2022/10/25 06:49:26;;;;;;;5.07;0.80;;;12.40;80.50;;;;;;4208750;28;20028;-87
2022/10/25 06:51:28;;;;;;;5.32;1.20;;;12.50;80.60;;;;;;4204823;28;20819;-87
2022/10/25 06:53:28;;;;;;;5.00;0.85;;;12.40;80.60;;;;;;4193296;28;20070;-87
2022/10/25 06:55:30;;;;;;;3.00;0.82;;;12.40;80.70;;;;;;4193608;28;20021;-88
2022/10/25 06:57:31;;;;;;;5.50;0.90;;;12.40;80.70;;;;;;4196161;28;20024;-87
2022/10/25 06:59:31;;;;;;;3.67;1.00;;;12.40;80.80;;;;;;4206632;28;20024;-88
2022/10/25 07:01:32;;;;;;;6.05;0.90;;;12.30;80.90;;;;;;4187506;28;20037;-87
2022/10/25 07:03:36;;;;;;;6.45;1.25;;;12.40;81.00;;;;;;4205528;28;20037;-87
2022/10/25 07:05:40;;;;;;;14.65;1.38;;;12.40;81.00;;;;;;4173116;28;20116;-87
2022/10/25 07:07:41;;;;;;;11.50;1.50;;;12.40;81.00;;;;;;4189379;28;20032;-87
2022/10/25 07:09:49;;;;;;;7.60;1.40;;;12.40;81.00;;;;;;4174042;28;20056;-87
2022/10/25 07:11:50;;;;;;;5.82;1.30;;;12.40;81.10;;;;;;4189749;28;20508;-87
2022/10/25 07:14:10;;;;;;;9.50;1.77;;;12.40;81.10;;;;;;4196681;28;20036;-87
2022/10/25 07:16:15;;;;;;;6.90;1.35;;;12.50;81.30;;;;;;4178428;28;20091;-87
2022/10/25 07:18:36;;;;;;;18.75;2.63;;;12.40;81.30;;;;;;4203974;28;20036;-87
2022/10/25 07:21:02;;;;;;;17.05;2.60;;;12.60;81.40;;;;;;4195558;28;20075;-87
2022/10/25 07:23:23;;;;;;;10.10;2.00;;;12.50;81.50;;;;;;4191915;28;20111;-86
2022/10/25 07:25:44;;;;;;;19.45;2.95;;;12.60;81.70;;;;;;4206296;28;20033;-87
2022/10/25 07:28:05;;;;;;;16.73;2.85;;;12.60;81.80;;;;;;4197454;28;20505;-87
2022/10/25 07:30:26;;;;;;;19.20;3.53;;;12.60;82.10;;;;;;4189001;28;20032;-86
2022/10/25 07:32:46;;;;;;;20.13;3.25;;;12.60;82.30;;;;;;4202552;28;20036;-87
2022/10/25 07:35:07;;;;;;;20.25;3.17;;;12.60;82.60;;;;;;4205070;28;20040;-86
2022/10/25 07:37:28;;;;;;;18.88;3.65;;;12.60;82.70;;;;;;4188191;28;20028;-88
2022/10/25 07:39:48;;;;;;;24.23;3.58;;;12.80;83.10;;;;;;4185388;28;20071;-87
2022/10/25 07:41:59;;;;;;;25.45;3.38;;;12.80;83.30;;;;;;4190140;28;20090;-86
2022/10/25 07:44:20;;;;;;;23.48;3.45;;;12.80;83.50;;;;;;4191931;28;20405;-87
2022/10/25 07:46:41;;;;;;;24.00;4.40;;;12.90;83.50;;;;;;4194615;28;20040;-87
2022/10/25 07:49:02;;;;;;;22.70;3.17;;;12.90;83.70;;;;;;4207224;28;20028;-87
2022/10/25 07:51:16;;;;;;;28.17;3.30;;;12.90;83.70;;;;;;4181264;28;20112;-87
2022/10/25 07:53:37;;;;;;;21.63;3.22;;;13.00;83.80;;;;;;4190362;28;20507;-87
2022/10/25 07:55:58;;;;;;;27.75;4.53;;;13.20;83.80;;;;;;4206541;28;20033;-86
2022/10/25 07:58:18;;;;;;;23.38;3.80;;;13.10;83.90;;;;;;4210718;28;20120;-87
2022/10/25 08:00:39;;;;;;;20.23;3.35;;;13.10;83.90;;;;;;4200253;28;20040;-87
2022/10/25 08:03:00;;;;;;;25.00;3.13;;;13.30;83.90;;;;;;4203625;28;20032;-87
2022/10/25 08:05:20;;;;;;;16.70;2.80;;;13.30;83.90;;;;;;4192253;28;20112;-85
2022/10/25 08:07:41;;;;;;;21.90;3.50;;;13.30;83.90;;;;;;4193279;28;20072;-86
2022/10/25 08:10:02;;;;;;;24.73;3.88;;;13.40;84.10;;;;;;4198557;28;20081;-87
2022/10/25 08:12:23;;;;;;;20.98;2.60;;;13.40;84.00;;;;;;4185346;28;20036;-87
2022/10/25 08:14:43;;;;;;;25.05;3.35;;;13.50;83.80;;;;;;4201154;28;20036;-86
2022/10/25 08:17:04;;;;;;;30.40;3.75;;;13.40;83.60;;;;;;4191162;28;20043;-87
2022/10/25 08:19:24;;;;;;;17.60;3.10;;;13.60;83.60;;;;;;4205825;28;20020;-87
2022/10/25 08:21:45;;;;;;;20.73;2.90;;;13.50;83.50;;;;;;4190298;28;20722;-87
2022/10/25 08:24:06;;;;;;;21.63;3.25;;;13.50;83.30;;;;;;4202239;28;20059;-87
2022/10/25 08:26:28;;;;;;;19.83;2.92;;;13.50;83.10;;;;;;4189410;28;20415;-87
2022/10/25 08:28:50;;;;;;;29.73;3.70;;;13.50;83.10;;;;;;4203541;28;20044;-87
2022/10/25 08:31:10;;;;;;;21.48;3.80;;;13.60;83.10;;;;;;4203769;28;20032;-86
2022/10/25 08:33:32;;;;;;;27.35;4.13;;;13.70;83.20;;;;;;4187136;28;20028;-87
2022/10/25 08:35:40;;;;;;;34.83;4.05;;;13.60;83.10;;;;;;4205882;28;20626;-87
2022/10/25 08:37:40;;;;;;;16.83;2.92;;;13.60;83.10;;;;;;4201208;28;20033;-86
2022/10/25 08:39:42;;;;;;;22.08;3.70;;;13.60;83.20;;;;;;4204484;28;20064;-86
2022/10/25 08:41:53;;;;;;;24.92;3.05;;;13.70;83.30;;;;;;4213017;28;20484;-86
2022/10/25 08:44:07;;;;;;;23.13;3.08;;;13.70;83.20;;;;;;4204151;28;20511;-86
2022/10/25 08:46:25;;;;;;;25.50;3.05;;;13.70;83.10;;;;;;4175469;28;20431;-87
2022/10/25 08:48:33;;;;;;;21.02;3.25;;;13.70;83.10;;;;;;4165912;28;20045;-86
2022/10/25 08:50:49;;;;;;;22.88;3.30;;;13.80;83.20;;;;;;4202603;28;20032;-86
2022/10/25 08:52:55;;;;;;;22.13;2.90;;;13.80;83.30;;;;;;4167946;28;20029;-87
2022/10/25 08:54:59;;;;;;;17.67;3.25;;;13.90;83.20;;;;;;4186798;28;20082;-86
2022/10/25 08:57:04;;;;;;;;;;;13.90;83.20;;;;;;4181260;28;20021;-86
2022/10/25 08:59:05;;;;;;;24.20;2.97;;;13.90;83.50;;;;;;4201547;28;20093;-86
2022/10/25 09:01:14;;;;;;;15.27;2.55;;;14.00;82.90;;;;;;4205942;28;20035;-86
2022/10/25 09:03:24;;;;;;;22.52;3.33;;;13.90;82.80;;;;;;4173718;28;20033;-86
2022/10/25 09:05:24;;;;;;;16.50;2.65;;;13.90;82.70;;;;;;4182535;28;20078;-86
2022/10/25 09:08:00;;;;;;;11.75;2.25;;;13.90;82.70;;;;;;4208912;28;20028;-86
2022/10/25 09:10:14;;;;;;;25.25;3.03;;;13.90;82.80;;;;;;4158964;28;20039;-87
2022/10/25 09:12:21;;;;;;;22.58;2.67;;;14.00;83.00;;;;;;4187786;28;20028;-87
2022/10/25 09:14:42;;;;;;;28.65;3.25;;;14.00;82.80;;;;;;4189693;28;20439;-86
2022/10/25 09:17:13;;;;;;;20.60;3.00;;;14.00;82.90;;;;;;4169974;28;20029;-86
2022/10/25 09:19:19;;;;;;;23.88;3.20;;;14.00;82.90;;;;;;4178669;28;20417;-86
2022/10/25 09:21:27;;;;;;;15.82;2.22;;;14.10;82.90;;;;;;4173128;28;20033;-87
2022/10/25 09:23:32;;;;;;;19.75;2.53;;;14.10;83.10;;;;;;4203217;28;20023;-86
2022/10/25 09:25:54;;;;;;;16.88;2.58;;;14.20;83.20;;;;;;4206918;28;20043;-86
2022/10/25 09:28:07;;;;;;;17.48;2.58;;;14.20;83.40;;;;;;4180179;28;20028;-86
2022/10/25 09:30:11;;;;;;;12.68;2.13;;;14.30;83.00;;;;;;4190710;28;20116;-87
2022/10/25 09:32:39;;;;;;;15.88;2.63;;;14.30;82.70;;;;;;4191288;28;20028;-86
2022/10/25 09:34:40;;;;;;;18.25;2.03;;;14.30;82.10;;;;;;4187546;28;20093;-87
2022/10/25 09:36:46;;;;;;;21.10;2.53;;;14.30;81.70;;;;;;4175107;28;20122;-86
2022/10/25 09:38:55;;;;;;;14.45;2.55;;;14.30;81.60;;;;;;4195443;28;20041;-87
2022/10/25 09:41:13;;;;;;;14.40;2.55;;;14.40;81.40;;;;;;4189462;28;20055;-86
2022/10/25 09:43:18;;;;;;;20.80;2.53;;;14.50;81.40;;;;;;4201000;28;20037;-87
2022/10/25 09:45:53;;;;;;;14.93;2.03;;;14.40;81.10;;;;;;4195859;28;20020;-86
2022/10/25 09:48:14;;;;;;;16.63;2.70;;;14.40;81.00;;;;;;4182747;28;20051;-86
2022/10/25 09:50:23;;;;;;;14.45;2.42;;;14.40;81.00;;;;;;4197167;28;20052;-87
2022/10/25 09:52:33;;;;;;;19.50;2.28;;;14.40;81.00;;;;;;4191846;28;20020;-86
2022/10/25 09:54:48;;;;;;;16.80;2.45;;;14.40;80.80;;;;;;4196871;28;20189;-87
2022/10/25 09:56:49;;;;;;;12.95;2.55;;;14.40;80.60;;;;;;4210083;28;21105;-86
2022/10/25 09:58:50;;;;;;;13.20;1.90;;;14.40;80.30;;;;;;4207625;28;20108;-87
2022/10/25 10:00:53;;;;;;;18.83;2.47;;;14.40;80.00;;;;;;4188492;28;20107;-87
2022/10/25 10:02:54;;;;;;;20.27;3.00;;;14.40;79.90;;;;;;4190585;28;20041;-87
2022/10/25 10:05:18;;;;;;;24.15;2.92;;;14.50;80.00;;;;;;4189034;28;20041;-86
2022/10/25 10:07:28;;;;;;;25.88;3.10;;;14.40;79.80;;;;;;4192646;28;20431;-86
2022/10/25 10:09:31;;;;;;;19.27;2.85;;;14.40;79.80;;;;;;4202557;28;20024;-87
2022/10/25 10:11:33;;;;;;;22.33;2.60;;;14.40;79.80;;;;;;4194573;28;20029;-86
2022/10/25 10:14:00;;;;;;;12.45;2.35;;;14.50;79.70;;;;;;4173338;28;20033;-87
2022/10/25 10:16:21;;;;;;;21.85;3.30;;;14.40;79.50;;;;;;4177514;28;20097;-86
2022/10/25 10:18:34;;;;;;;16.17;2.55;;;14.40;79.40;;;;;;4174432;28;20028;-86
2022/10/25 10:20:35;;;;;;;20.52;3.47;;;14.40;79.30;;;;;;4184712;28;20058;-87
2022/10/25 10:22:55;;;;;;;25.45;2.67;;;14.40;79.40;;;;;;4206364;28;20124;-87
2022/10/25 10:25:21;;;;;;;15.38;2.38;;;14.40;79.60;;;;;;4191012;28;20498;-87
2022/10/25 10:27:45;;;;;;;17.83;2.25;;;14.40;79.70;;;;;;4199976;28;20419;-87
2022/10/25 10:30:07;;;;;;;12.15;1.88;;;14.40;79.80;;;;;;4194241;28;20524;-87
2022/10/25 10:32:33;;;;;;;12.55;1.95;;;14.50;79.90;;;;;;4206867;28;20450;-86
2022/10/25 10:34:56;;;;;;;13.63;2.47;;;14.50;80.50;;;;;;4197683;28;20643;-87
2022/10/25 10:37:25;;;;;;;14.93;2.17;;;14.60;79.40;;;;;;4197544;28;20381;-87
2022/10/25 10:39:58;;;;;;;13.55;2.08;;;14.60;78.70;;;;;;4192466;28;20095;-87
2022/10/25 10:42:21;;;;;;;10.98;1.98;;;14.60;78.30;;;;;;4205607;28;20028;-86
2022/10/25 10:45:01;;;;;;;18.27;2.45;;;14.60;78.20;;;;;;4204811;28;20115;-87
2022/10/25 10:47:30;;;;;;;10.95;2.13;;;14.60;77.60;;;;;;4192304;28;21673;-86
2022/10/25 10:49:51;;;;;;;17.40;2.45;;;14.80;77.50;;;;;;4202762;28;20025;-86
2022/10/25 10:52:41;;;;;;;13.07;1.83;;;14.60;77.10;;;;;;4222815;28;20036;-87
2022/10/25 10:55:02;;;;;;;18.45;2.40;;;14.70;77.00;;;;;;4208515;28;20040;-87
2022/10/25 10:57:31;;;;;;;11.35;1.50;;;14.70;77.20;;;;;;4198281;28;20500;-86
2022/10/25 10:59:55;;;;;;;16.20;1.80;;;14.70;77.20;;;;;;4205716;28;20710;-87
2022/10/25 11:02:41;;;;;;;20.80;2.42;;;14.70;77.50;;;;;;4195118;28;20124;-87
2022/10/25 11:05:01;;;;;;;16.88;1.85;;;14.70;77.10;;;;;;4179610;28;20029;-87
2022/10/25 11:07:42;;;;;;;17.80;2.10;;;14.80;76.80;;;;;;4203873;28;20479;-87
2022/10/25 11:10:14;;;;;;;18.45;2.00;;;14.80;76.10;;;;;;4206358;28;20032;-87
2022/10/25 11:12:35;;;;;;;27.95;2.67;;;14.80;76.00;;;;;;4198994;28;20037;-86
2022/10/25 11:14:55;;;;;;;14.40;2.50;;;14.80;76.20;;;;;;4192237;28;20497;-86
2022/10/25 11:17:28;;;;;;;23.77;2.22;;;14.80;76.10;;;;;;4189901;28;20762;-86
2022/10/25 11:20:17;;;;;;;18.60;2.13;;;14.90;76.00;;;;;;4208259;28;20501;-87
2022/10/25 11:23:02;;;;;;;13.30;2.10;;;14.90;76.00;;;;;;4201342;28;20738;-86
2022/10/25 11:25:32;;;;;;;12.85;2.00;;;14.90;76.30;;;;;;4205118;28;20019;-86
2022/10/25 11:27:59;;;;;;;17.67;2.75;;;14.90;76.20;;;;;;4207407;28;20036;-87
2022/10/25 11:30:21;;;;;;;20.70;2.20;;;14.90;76.00;;;;;;4189158;28;20024;-86
2022/10/25 11:33:16;;;;;;;15.30;2.28;;;15.00;76.00;;;;;;4199198;28;20025;-87
2022/10/25 11:36:16;;;;;;;18.27;1.88;;;15.00;75.60;;;;;;4208848;28;20392;-87
2022/10/25 11:38:45;;;;;;;22.15;2.67;;;15.00;75.30;;;;;;4189405;28;20823;-87
2022/10/25 11:41:08;;;;;;;8.75;1.75;;;15.00;75.50;;;;;;4191985;28;20036;-86
2022/10/25 11:43:52;;;;;;;12.55;1.88;;;15.10;75.70;;;;;;4178976;28;20036;-87
2022/10/25 11:46:15;;;;;;;15.40;2.20;;;15.10;75.60;;;;;;4199120;28;20023;-87
2022/10/25 11:48:43;;;;;;;17.98;1.80;;;15.10;75.60;;;;;;4186278;28;20029;-88
2022/10/25 11:51:03;;;;;;;10.80;2.40;;;15.30;75.50;;;;;;4192650;28;20151;-87
2022/10/25 11:54:02;;;;;;;21.42;2.42;;;15.20;75.20;;;;;;4202308;28;20024;-87
2022/10/25 11:56:40;;;;;;;13.75;1.95;;;15.20;74.40;;;;;;4186830;28;20116;-86
2022/10/25 11:59:31;;;;;;;13.25;1.77;;;15.30;74.40;;;;;;4195739;28;20035;-87
2022/10/25 12:02:03;;;;;;;16.17;2.05;;;15.30;73.70;;;;;;4206416;28;20059;-87
2022/10/25 12:04:40;;;;;;;17.10;1.95;;;15.30;73.90;;;;;;4185140;28;20028;-87
2022/10/25 12:07:23;;;;;;;16.73;2.10;;;15.30;74.10;;;;;;4206113;28;20497;-87
2022/10/25 12:10:18;;;;;;;16.03;2.20;;;15.30;73.30;;;;;;4183463;28;20028;-87
2022/10/25 12:12:57;;;;;;;12.80;1.95;;;15.30;73.20;;;;;;4186173;28;20314;-88
2022/10/25 12:15:23;;;;;;;11.00;1.40;;;15.40;73.90;;;;;;4189116;28;20037;-87
2022/10/25 12:17:44;;;;;;;10.98;1.45;;;15.40;73.70;;;;;;4187237;28;20116;-87
2022/10/25 12:20:10;;;;;;;14.43;2.28;;;15.40;73.40;;;;;;4185870;28;20032;-86
2022/10/25 12:22:42;;;;;;;21.88;2.28;;;15.40;73.40;;;;;;4190923;28;20021;-87